sensor_id;sensor_type;location;lat;lon;timestamp;P1;durP1;ratioP1;P2;durP2;ratioP2
12135;SDS011;6131;56.420;15.548;2023-07-13T00:00:33;4.33;;;1.97;;
12135;SDS011;6131;56.420;15.548;2023-07-13T00:02:59;6.33;;;2.10;;
12135;SDS011;6131;56.420;15.548;2023-07-13T00:05:25;10.23;;;2.67;;
12135;SDS011;6131;56.420;15.548;2023-07-13T00:07:52;6.13;;;2.43;;
12135;SDS011;6131;56.420;15.548;2023-07-13T00:10:19;5.13;;;2.20;;
12135;SDS011;6131;56.420;15.548;2023-07-13T00:12:45;4.07;;;2.47;;
12135;SDS011;6131;56.420;15.548;2023-07-13T00:15:13;5.93;;;2.43;;
12135;SDS011;6131;56.420;15.548;2023-07-13T00:17:41;4.43;;;2.43;;
12135;SDS011;6131;56.420;15.548;2023-07-13T00:20:09;4.93;;;2.10;;
12135;SDS011;6131;56.420;15.548;2023-07-13T00:22:36;6.23;;;2.17;;
12135;SDS011;6131;56.420;15.548;2023-07-13T00:25:02;5.50;;;2.33;;
12135;SDS011;6131;56.420;15.548;2023-07-13T00:27:28;3.83;;;2.10;;
12135;SDS011;6131;56.420;15.548;2023-07-13T00:29:56;5.23;;;2.20;;
12135;SDS011;6131;56.420;15.548;2023-07-13T00:32:22;8.63;;;2.10;;
12135;SDS011;6131;56.420;15.548;2023-07-13T00:34:50;4.83;;;2.07;;
12135;SDS011;6131;56.420;15.548;2023-07-13T00:37:16;11.33;;;2.10;;
12135;SDS011;6131;56.420;15.548;2023-07-13T00:39:42;2.37;;;2.17;;
12135;SDS011;6131;56.420;15.548;2023-07-13T00:42:08;3.97;;;2.47;;
12135;SDS011;6131;56.420;15.548;2023-07-13T00:44:36;5.77;;;2.63;;
12135;SDS011;6131;56.420;15.548;2023-07-13T00:47:04;5.77;;;2.70;;
12135;SDS011;6131;56.420;15.548;2023-07-13T00:49:30;5.57;;;2.03;;
12135;SDS011;6131;56.420;15.548;2023-07-13T00:52:03;3.80;;;2.20;;
12135;SDS011;6131;56.420;15.548;2023-07-13T00:54:32;8.27;;;2.10;;
12135;SDS011;6131;56.420;15.548;2023-07-13T00:57:02;10.93;;;2.53;;
12135;SDS011;6131;56.420;15.548;2023-07-13T00:59:29;4.27;;;2.50;;
12135;SDS011;6131;56.420;15.548;2023-07-13T01:01:56;4.73;;;2.53;;
12135;SDS011;6131;56.420;15.548;2023-07-13T01:04:25;4.17;;;2.57;;
12135;SDS011;6131;56.420;15.548;2023-07-13T01:06:51;3.70;;;2.43;;
12135;SDS011;6131;56.420;15.548;2023-07-13T01:09:19;12.50;;;2.77;;
12135;SDS011;6131;56.420;15.548;2023-07-13T01:11:45;6.97;;;2.90;;
12135;SDS011;6131;56.420;15.548;2023-07-13T01:14:11;4.60;;;2.13;;
12135;SDS011;6131;56.420;15.548;2023-07-13T01:16:38;5.70;;;2.37;;
12135;SDS011;6131;56.420;15.548;2023-07-13T01:19:07;7.33;;;2.33;;
12135;SDS011;6131;56.420;15.548;2023-07-13T01:21:34;5.63;;;2.60;;
12135;SDS011;6131;56.420;15.548;2023-07-13T01:24:03;4.37;;;2.00;;
12135;SDS011;6131;56.420;15.548;2023-07-13T01:26:29;12.73;;;3.03;;
12135;SDS011;6131;56.420;15.548;2023-07-13T01:28:55;6.73;;;2.40;;
12135;SDS011;6131;56.420;15.548;2023-07-13T01:31:21;5.40;;;2.50;;
12135;SDS011;6131;56.420;15.548;2023-07-13T01:33:47;5.43;;;2.33;;
12135;SDS011;6131;56.420;15.548;2023-07-13T01:36:13;7.60;;;2.40;;
12135;SDS011;6131;56.420;15.548;2023-07-13T01:38:39;6.80;;;2.33;;
12135;SDS011;6131;56.420;15.548;2023-07-13T01:41:05;5.00;;;2.20;;
12135;SDS011;6131;56.420;15.548;2023-07-13T01:43:32;8.47;;;2.37;;
12135;SDS011;6131;56.420;15.548;2023-07-13T01:45:58;6.80;;;2.13;;
12135;SDS011;6131;56.420;15.548;2023-07-13T01:48:24;4.67;;;2.20;;
12135;SDS011;6131;56.420;15.548;2023-07-13T01:50:50;7.70;;;2.47;;
12135;SDS011;6131;56.420;15.548;2023-07-13T01:53:16;6.30;;;2.47;;
12135;SDS011;6131;56.420;15.548;2023-07-13T01:55:42;9.80;;;2.97;;
12135;SDS011;6131;56.420;15.548;2023-07-13T01:58:08;5.53;;;2.43;;
12135;SDS011;6131;56.420;15.548;2023-07-13T02:00:34;5.00;;;2.70;;
12135;SDS011;6131;56.420;15.548;2023-07-13T02:03:02;5.93;;;2.77;;
12135;SDS011;6131;56.420;15.548;2023-07-13T02:05:31;3.60;;;2.47;;
12135;SDS011;6131;56.420;15.548;2023-07-13T02:08:00;4.20;;;2.50;;
12135;SDS011;6131;56.420;15.548;2023-07-13T02:10:26;5.13;;;3.10;;
12135;SDS011;6131;56.420;15.548;2023-07-13T02:12:53;6.47;;;3.00;;
12135;SDS011;6131;56.420;15.548;2023-07-13T02:15:19;4.90;;;2.73;;
12135;SDS011;6131;56.420;15.548;2023-07-13T02:17:52;7.60;;;3.10;;
12135;SDS011;6131;56.420;15.548;2023-07-13T02:20:23;4.67;;;2.80;;
12135;SDS011;6131;56.420;15.548;2023-07-13T02:22:49;4.73;;;2.80;;
12135;SDS011;6131;56.420;15.548;2023-07-13T02:25:19;3.43;;;2.80;;
12135;SDS011;6131;56.420;15.548;2023-07-13T02:27:45;8.83;;;2.80;;
12135;SDS011;6131;56.420;15.548;2023-07-13T02:30:11;9.10;;;2.70;;
12135;SDS011;6131;56.420;15.548;2023-07-13T02:32:37;4.50;;;2.53;;
12135;SDS011;6131;56.420;15.548;2023-07-13T02:35:05;3.03;;;2.23;;
12135;SDS011;6131;56.420;15.548;2023-07-13T02:37:33;4.50;;;2.67;;
12135;SDS011;6131;56.420;15.548;2023-07-13T02:39:59;5.77;;;3.00;;
12135;SDS011;6131;56.420;15.548;2023-07-13T02:42:25;9.70;;;3.00;;
12135;SDS011;6131;56.420;15.548;2023-07-13T02:44:51;7.83;;;3.13;;
12135;SDS011;6131;56.420;15.548;2023-07-13T02:47:19;5.97;;;2.60;;
12135;SDS011;6131;56.420;15.548;2023-07-13T02:49:46;5.43;;;2.80;;
12135;SDS011;6131;56.420;15.548;2023-07-13T02:52:13;3.67;;;2.60;;
12135;SDS011;6131;56.420;15.548;2023-07-13T02:54:39;7.13;;;2.73;;
12135;SDS011;6131;56.420;15.548;2023-07-13T02:57:05;5.67;;;2.87;;
12135;SDS011;6131;56.420;15.548;2023-07-13T02:59:31;6.33;;;2.63;;
12135;SDS011;6131;56.420;15.548;2023-07-13T03:01:57;6.40;;;2.63;;
12135;SDS011;6131;56.420;15.548;2023-07-13T03:04:23;5.17;;;2.90;;
12135;SDS011;6131;56.420;15.548;2023-07-13T03:06:49;3.30;;;2.33;;
12135;SDS011;6131;56.420;15.548;2023-07-13T03:09:15;7.47;;;2.17;;
12135;SDS011;6131;56.420;15.548;2023-07-13T03:11:41;6.07;;;2.20;;
12135;SDS011;6131;56.420;15.548;2023-07-13T03:14:08;10.27;;;2.70;;
12135;SDS011;6131;56.420;15.548;2023-07-13T03:16:34;6.50;;;2.93;;
12135;SDS011;6131;56.420;15.548;2023-07-13T03:19:00;7.13;;;2.80;;
12135;SDS011;6131;56.420;15.548;2023-07-13T03:21:26;8.00;;;2.97;;
12135;SDS011;6131;56.420;15.548;2023-07-13T03:23:53;3.70;;;2.53;;
12135;SDS011;6131;56.420;15.548;2023-07-13T03:26:20;5.30;;;2.90;;
12135;SDS011;6131;56.420;15.548;2023-07-13T03:29:10;8.67;;;3.33;;
12135;SDS011;6131;56.420;15.548;2023-07-13T03:31:36;5.03;;;2.27;;
12135;SDS011;6131;56.420;15.548;2023-07-13T03:34:05;6.57;;;2.60;;
12135;SDS011;6131;56.420;15.548;2023-07-13T03:36:31;6.90;;;2.40;;
12135;SDS011;6131;56.420;15.548;2023-07-13T03:39:03;5.63;;;2.73;;
12135;SDS011;6131;56.420;15.548;2023-07-13T03:41:34;7.33;;;2.83;;
12135;SDS011;6131;56.420;15.548;2023-07-13T03:44:00;4.80;;;2.80;;
12135;SDS011;6131;56.420;15.548;2023-07-13T03:46:26;6.93;;;2.60;;
12135;SDS011;6131;56.420;15.548;2023-07-13T03:48:56;4.90;;;2.30;;
12135;SDS011;6131;56.420;15.548;2023-07-13T03:51:29;6.07;;;2.67;;
12135;SDS011;6131;56.420;15.548;2023-07-13T03:53:55;6.67;;;2.50;;
12135;SDS011;6131;56.420;15.548;2023-07-13T03:56:21;5.87;;;2.30;;
12135;SDS011;6131;56.420;15.548;2023-07-13T03:58:48;5.73;;;2.60;;
12135;SDS011;6131;56.420;15.548;2023-07-13T04:01:15;7.03;;;2.77;;
12135;SDS011;6131;56.420;15.548;2023-07-13T04:03:43;3.97;;;2.30;;
12135;SDS011;6131;56.420;15.548;2023-07-13T04:06:14;4.83;;;2.40;;
12135;SDS011;6131;56.420;15.548;2023-07-13T04:08:42;5.63;;;2.67;;
12135;SDS011;6131;56.420;15.548;2023-07-13T04:11:08;9.13;;;2.67;;
12135;SDS011;6131;56.420;15.548;2023-07-13T04:13:34;4.20;;;2.00;;
12135;SDS011;6131;56.420;15.548;2023-07-13T04:16:00;7.93;;;2.60;;
12135;SDS011;6131;56.420;15.548;2023-07-13T04:18:29;6.47;;;2.30;;
12135;SDS011;6131;56.420;15.548;2023-07-13T04:20:55;10.10;;;2.70;;
12135;SDS011;6131;56.420;15.548;2023-07-13T04:23:21;6.83;;;2.40;;
12135;SDS011;6131;56.420;15.548;2023-07-13T04:25:48;5.47;;;2.50;;
12135;SDS011;6131;56.420;15.548;2023-07-13T04:28:14;7.50;;;2.30;;
12135;SDS011;6131;56.420;15.548;2023-07-13T04:30:41;4.47;;;2.47;;
12135;SDS011;6131;56.420;15.548;2023-07-13T04:33:09;7.47;;;2.30;;
12135;SDS011;6131;56.420;15.548;2023-07-13T04:35:35;5.03;;;2.27;;
12135;SDS011;6131;56.420;15.548;2023-07-13T04:38:03;4.90;;;2.10;;
12135;SDS011;6131;56.420;15.548;2023-07-13T04:40:35;7.43;;;2.40;;
12135;SDS011;6131;56.420;15.548;2023-07-13T04:43:01;9.37;;;2.77;;
12135;SDS011;6131;56.420;15.548;2023-07-13T04:45:27;7.77;;;2.87;;
12135;SDS011;6131;56.420;15.548;2023-07-13T04:47:53;6.13;;;2.20;;
12135;SDS011;6131;56.420;15.548;2023-07-13T04:50:19;7.37;;;2.50;;
12135;SDS011;6131;56.420;15.548;2023-07-13T04:52:48;4.77;;;2.20;;
12135;SDS011;6131;56.420;15.548;2023-07-13T04:55:14;8.80;;;2.50;;
12135;SDS011;6131;56.420;15.548;2023-07-13T04:57:40;9.60;;;3.00;;
12135;SDS011;6131;56.420;15.548;2023-07-13T05:00:07;6.10;;;2.53;;
12135;SDS011;6131;56.420;15.548;2023-07-13T05:02:33;4.93;;;2.00;;
12135;SDS011;6131;56.420;15.548;2023-07-13T05:05:00;7.57;;;2.53;;
12135;SDS011;6131;56.420;15.548;2023-07-13T05:07:26;4.07;;;1.70;;
12135;SDS011;6131;56.420;15.548;2023-07-13T05:09:52;4.20;;;2.13;;
12135;SDS011;6131;56.420;15.548;2023-07-13T05:12:18;6.17;;;2.47;;
12135;SDS011;6131;56.420;15.548;2023-07-13T05:14:44;8.60;;;2.13;;
12135;SDS011;6131;56.420;15.548;2023-07-13T05:17:10;6.77;;;2.20;;
12135;SDS011;6131;56.420;15.548;2023-07-13T05:19:36;9.60;;;2.63;;
12135;SDS011;6131;56.420;15.548;2023-07-13T05:22:02;6.60;;;2.47;;
12135;SDS011;6131;56.420;15.548;2023-07-13T05:24:29;6.57;;;2.10;;
12135;SDS011;6131;56.420;15.548;2023-07-13T05:26:55;7.93;;;2.67;;
12135;SDS011;6131;56.420;15.548;2023-07-13T05:29:22;7.53;;;2.63;;
12135;SDS011;6131;56.420;15.548;2023-07-13T05:31:49;7.15;;;2.10;;
12135;SDS011;6131;56.420;15.548;2023-07-13T05:34:38;4.93;;;2.00;;
12135;SDS011;6131;56.420;15.548;2023-07-13T05:37:04;6.07;;;2.10;;
12135;SDS011;6131;56.420;15.548;2023-07-13T05:39:31;7.45;;;2.20;;
12135;SDS011;6131;56.420;15.548;2023-07-13T05:42:01;5.88;;;2.20;;
12135;SDS011;6131;56.420;15.548;2023-07-13T05:44:27;6.57;;;1.90;;
12135;SDS011;6131;56.420;15.548;2023-07-13T05:46:53;8.80;;;2.23;;
12135;SDS011;6131;56.420;15.548;2023-07-13T05:49:23;3.42;;;1.92;;
12135;SDS011;6131;56.420;15.548;2023-07-13T05:51:49;6.25;;;1.88;;
12135;SDS011;6131;56.420;15.548;2023-07-13T05:54:15;5.75;;;2.00;;
12135;SDS011;6131;56.420;15.548;2023-07-13T05:56:41;5.30;;;1.80;;
12135;SDS011;6131;56.420;15.548;2023-07-13T05:59:07;6.00;;;2.10;;
12135;SDS011;6131;56.420;15.548;2023-07-13T06:01:33;7.50;;;2.08;;
12135;SDS011;6131;56.420;15.548;2023-07-13T06:03:59;7.00;;;2.15;;
12135;SDS011;6131;56.420;15.548;2023-07-13T06:06:25;7.22;;;1.90;;
12135;SDS011;6131;56.420;15.548;2023-07-13T06:08:51;4.75;;;1.75;;
12135;SDS011;6131;56.420;15.548;2023-07-13T06:11:21;6.45;;;2.05;;
12135;SDS011;6131;56.420;15.548;2023-07-13T06:13:48;2.90;;;1.70;;
12135;SDS011;6131;56.420;15.548;2023-07-13T06:16:14;4.18;;;1.88;;
12135;SDS011;6131;56.420;15.548;2023-07-13T06:18:43;10.00;;;2.05;;
12135;SDS011;6131;56.420;15.548;2023-07-13T06:21:09;4.80;;;1.85;;
12135;SDS011;6131;56.420;15.548;2023-07-13T06:23:37;4.78;;;1.80;;
12135;SDS011;6131;56.420;15.548;2023-07-13T06:26:06;6.18;;;1.85;;
12135;SDS011;6131;56.420;15.548;2023-07-13T06:28:32;8.32;;;1.90;;
12135;SDS011;6131;56.420;15.548;2023-07-13T06:30:59;3.53;;;1.75;;
12135;SDS011;6131;56.420;15.548;2023-07-13T06:33:25;5.10;;;1.58;;
12135;SDS011;6131;56.420;15.548;2023-07-13T06:35:53;5.28;;;2.03;;
12135;SDS011;6131;56.420;15.548;2023-07-13T06:38:22;3.85;;;1.67;;
12135;SDS011;6131;56.420;15.548;2023-07-13T06:40:51;6.80;;;1.70;;
12135;SDS011;6131;56.420;15.548;2023-07-13T06:43:23;3.33;;;1.33;;
12135;SDS011;6131;56.420;15.548;2023-07-13T06:45:54;7.00;;;1.95;;
12135;SDS011;6131;56.420;15.548;2023-07-13T06:48:21;4.32;;;1.52;;
12135;SDS011;6131;56.420;15.548;2023-07-13T06:50:48;5.55;;;2.00;;
12135;SDS011;6131;56.420;15.548;2023-07-13T06:53:15;4.20;;;1.67;;
12135;SDS011;6131;56.420;15.548;2023-07-13T06:55:43;5.97;;;1.80;;
12135;SDS011;6131;56.420;15.548;2023-07-13T06:58:09;6.82;;;1.70;;
12135;SDS011;6131;56.420;15.548;2023-07-13T07:00:37;3.50;;;1.58;;
12135;SDS011;6131;56.420;15.548;2023-07-13T07:03:08;7.15;;;1.70;;
12135;SDS011;6131;56.420;15.548;2023-07-13T07:05:44;4.15;;;1.30;;
12135;SDS011;6131;56.420;15.548;2023-07-13T07:08:11;2.88;;;1.40;;
12135;SDS011;6131;56.420;15.548;2023-07-13T07:10:37;4.70;;;1.40;;
12135;SDS011;6131;56.420;15.548;2023-07-13T07:13:03;4.80;;;1.40;;
12135;SDS011;6131;56.420;15.548;2023-07-13T07:15:29;6.70;;;1.70;;
12135;SDS011;6131;56.420;15.548;2023-07-13T07:17:55;4.80;;;1.50;;
12135;SDS011;6131;56.420;15.548;2023-07-13T07:20:25;4.30;;;1.60;;
12135;SDS011;6131;56.420;15.548;2023-07-13T07:23:00;3.45;;;1.48;;
12135;SDS011;6131;56.420;15.548;2023-07-13T07:25:27;3.67;;;1.25;;
12135;SDS011;6131;56.420;15.548;2023-07-13T07:27:56;3.33;;;1.38;;
12135;SDS011;6131;56.420;15.548;2023-07-13T07:30:27;4.05;;;1.58;;
12135;SDS011;6131;56.420;15.548;2023-07-13T07:32:53;4.85;;;1.23;;
12135;SDS011;6131;56.420;15.548;2023-07-13T07:35:19;2.53;;;1.27;;
12135;SDS011;6131;56.420;15.548;2023-07-13T07:37:46;2.67;;;1.25;;
12135;SDS011;6131;56.420;15.548;2023-07-13T07:40:12;4.63;;;1.38;;
12135;SDS011;6131;56.420;15.548;2023-07-13T07:42:40;2.38;;;1.10;;
12135;SDS011;6131;56.420;15.548;2023-07-13T07:45:06;3.65;;;1.13;;
12135;SDS011;6131;56.420;15.548;2023-07-13T07:47:32;3.53;;;1.10;;
12135;SDS011;6131;56.420;15.548;2023-07-13T07:49:58;2.78;;;1.33;;
12135;SDS011;6131;56.420;15.548;2023-07-13T07:52:27;4.78;;;1.30;;
12135;SDS011;6131;56.420;15.548;2023-07-13T07:54:53;2.88;;;1.48;;
12135;SDS011;6131;56.420;15.548;2023-07-13T07:57:19;3.53;;;1.42;;
12135;SDS011;6131;56.420;15.548;2023-07-13T07:59:45;3.38;;;1.40;;
12135;SDS011;6131;56.420;15.548;2023-07-13T08:02:11;3.45;;;1.20;;
12135;SDS011;6131;56.420;15.548;2023-07-13T08:04:37;2.53;;;1.25;;
12135;SDS011;6131;56.420;15.548;2023-07-13T08:07:03;7.15;;;1.48;;
12135;SDS011;6131;56.420;15.548;2023-07-13T08:09:29;2.45;;;1.20;;
12135;SDS011;6131;56.420;15.548;2023-07-13T08:11:55;5.22;;;1.63;;
12135;SDS011;6131;56.420;15.548;2023-07-13T08:14:21;2.65;;;1.27;;
12135;SDS011;6131;56.420;15.548;2023-07-13T08:16:47;3.55;;;1.10;;
12135;SDS011;6131;56.420;15.548;2023-07-13T08:19:14;4.90;;;1.50;;
12135;SDS011;6131;56.420;15.548;2023-07-13T08:21:40;7.30;;;1.40;;
12135;SDS011;6131;56.420;15.548;2023-07-13T08:24:08;3.83;;;1.38;;
12135;SDS011;6131;56.420;15.548;2023-07-13T08:26:34;6.38;;;1.83;;
12135;SDS011;6131;56.420;15.548;2023-07-13T08:29:00;3.47;;;1.20;;
12135;SDS011;6131;56.420;15.548;2023-07-13T08:31:27;3.00;;;1.10;;
12135;SDS011;6131;56.420;15.548;2023-07-13T08:33:53;6.50;;;1.60;;
12135;SDS011;6131;56.420;15.548;2023-07-13T08:36:19;3.90;;;1.23;;
12135;SDS011;6131;56.420;15.548;2023-07-13T08:38:47;1.73;;;1.10;;
12135;SDS011;6131;56.420;15.548;2023-07-13T08:41:14;2.70;;;1.38;;
12135;SDS011;6131;56.420;15.548;2023-07-13T08:43:41;3.70;;;1.50;;
12135;SDS011;6131;56.420;15.548;2023-07-13T08:49:02;3.80;;;1.55;;
12135;SDS011;6131;56.420;15.548;2023-07-13T08:53:57;5.40;;;1.58;;
12135;SDS011;6131;56.420;15.548;2023-07-13T08:56:30;4.85;;;1.30;;
12135;SDS011;6131;56.420;15.548;2023-07-13T08:59:30;5.82;;;1.50;;
12135;SDS011;6131;56.420;15.548;2023-07-13T09:04:19;3.47;;;1.10;;
12135;SDS011;6131;56.420;15.548;2023-07-13T09:09:44;7.32;;;1.45;;
12135;SDS011;6131;56.420;15.548;2023-07-13T09:14:47;5.97;;;1.20;;
12135;SDS011;6131;56.420;15.548;2023-07-13T09:25:32;3.00;;;1.10;;
12135;SDS011;6131;56.420;15.548;2023-07-13T09:28:02;5.30;;;1.50;;
12135;SDS011;6131;56.420;15.548;2023-07-13T09:33:13;1.90;;;1.10;;
12135;SDS011;6131;56.420;15.548;2023-07-13T09:35:42;3.47;;;1.17;;
12135;SDS011;6131;56.420;15.548;2023-07-13T09:38:13;4.55;;;1.20;;
12135;SDS011;6131;56.420;15.548;2023-07-13T09:43:13;3.10;;;1.48;;
12135;SDS011;6131;56.420;15.548;2023-07-13T09:45:39;4.20;;;1.45;;
12135;SDS011;6131;56.420;15.548;2023-07-13T09:48:06;2.75;;;1.27;;
12135;SDS011;6131;56.420;15.548;2023-07-13T09:50:34;2.42;;;1.25;;
12135;SDS011;6131;56.420;15.548;2023-07-13T09:53:00;4.38;;;1.40;;
12135;SDS011;6131;56.420;15.548;2023-07-13T09:55:36;4.43;;;1.17;;
12135;SDS011;6131;56.420;15.548;2023-07-13T10:00:38;3.30;;;1.27;;
12135;SDS011;6131;56.420;15.548;2023-07-13T10:05:41;4.03;;;1.60;;
12135;SDS011;6131;56.420;15.548;2023-07-13T10:08:24;4.25;;;1.45;;
12135;SDS011;6131;56.420;15.548;2023-07-13T10:13:42;4.50;;;1.52;;
12135;SDS011;6131;56.420;15.548;2023-07-13T10:16:08;6.80;;;1.45;;
12135;SDS011;6131;56.420;15.548;2023-07-13T10:21:26;3.38;;;1.30;;
12135;SDS011;6131;56.420;15.548;2023-07-13T10:23:51;3.90;;;1.70;;
12135;SDS011;6131;56.420;15.548;2023-07-13T10:26:21;6.13;;;1.60;;
12135;SDS011;6131;56.420;15.548;2023-07-13T10:28:49;7.20;;;1.60;;
12135;SDS011;6131;56.420;15.548;2023-07-13T10:31:17;3.90;;;1.40;;
12135;SDS011;6131;56.420;15.548;2023-07-13T10:33:44;3.42;;;1.50;;
12135;SDS011;6131;56.420;15.548;2023-07-13T10:36:23;5.55;;;1.70;;
12135;SDS011;6131;56.420;15.548;2023-07-13T10:38:54;14.10;;;2.47;;
12135;SDS011;6131;56.420;15.548;2023-07-13T10:41:21;5.15;;;1.58;;
12135;SDS011;6131;56.420;15.548;2023-07-13T10:43:52;6.03;;;1.73;;
12135;SDS011;6131;56.420;15.548;2023-07-13T10:46:19;8.32;;;2.05;;
12135;SDS011;6131;56.420;15.548;2023-07-13T10:48:47;6.25;;;1.90;;
12135;SDS011;6131;56.420;15.548;2023-07-13T10:51:14;7.53;;;1.98;;
12135;SDS011;6131;56.420;15.548;2023-07-13T10:53:41;5.10;;;1.70;;
12135;SDS011;6131;56.420;15.548;2023-07-13T10:58:40;4.18;;;1.52;;
12135;SDS011;6131;56.420;15.548;2023-07-13T11:01:13;2.92;;;1.70;;
12135;SDS011;6131;56.420;15.548;2023-07-13T11:06:17;17.65;;;2.20;;
12135;SDS011;6131;56.420;15.548;2023-07-13T11:18:47;4.72;;;1.42;;
12135;SDS011;6131;56.420;15.548;2023-07-13T11:21:14;9.75;;;1.90;;
12135;SDS011;6131;56.420;15.548;2023-07-13T11:23:42;9.23;;;2.20;;
12135;SDS011;6131;56.420;15.548;2023-07-13T11:28:54;4.07;;;1.60;;
12135;SDS011;6131;56.420;15.548;2023-07-13T11:31:20;7.78;;;1.70;;
12135;SDS011;6131;56.420;15.548;2023-07-13T11:33:53;6.38;;;1.42;;
12135;SDS011;6131;56.420;15.548;2023-07-13T11:36:29;4.00;;;1.48;;
12135;SDS011;6131;56.420;15.548;2023-07-13T11:42:00;2.88;;;1.35;;
12135;SDS011;6131;56.420;15.548;2023-07-13T11:44:27;3.38;;;1.60;;
12135;SDS011;6131;56.420;15.548;2023-07-13T11:46:54;5.55;;;1.33;;
12135;SDS011;6131;56.420;15.548;2023-07-13T11:49:24;9.07;;;1.90;;
12135;SDS011;6131;56.420;15.548;2023-07-13T11:51:51;4.78;;;1.30;;
12135;SDS011;6131;56.420;15.548;2023-07-13T11:54:28;4.78;;;1.23;;
12135;SDS011;6131;56.420;15.548;2023-07-13T11:59:48;6.32;;;1.48;;
12135;SDS011;6131;56.420;15.548;2023-07-13T12:02:17;3.22;;;1.35;;
12135;SDS011;6131;56.420;15.548;2023-07-13T12:04:43;5.13;;;1.42;;
12135;SDS011;6131;56.420;15.548;2023-07-13T12:07:17;4.60;;;1.65;;
12135;SDS011;6131;56.420;15.548;2023-07-13T12:09:43;4.95;;;1.70;;
12135;SDS011;6131;56.420;15.548;2023-07-13T12:12:13;2.03;;;1.17;;
12135;SDS011;6131;56.420;15.548;2023-07-13T12:14:40;8.65;;;1.30;;
12135;SDS011;6131;56.420;15.548;2023-07-13T12:17:19;2.40;;;0.80;;
12135;SDS011;6131;56.420;15.548;2023-07-13T12:19:47;5.70;;;1.35;;
12135;SDS011;6131;56.420;15.548;2023-07-13T12:22:14;10.27;;;1.25;;
12135;SDS011;6131;56.420;15.548;2023-07-13T12:24:40;1.70;;;0.90;;
12135;SDS011;6131;56.420;15.548;2023-07-13T12:27:13;1.88;;;0.73;;
12135;SDS011;6131;56.420;15.548;2023-07-13T12:29:48;2.10;;;1.02;;
12135;SDS011;6131;56.420;15.548;2023-07-13T12:32:16;3.00;;;0.80;;
12135;SDS011;6131;56.420;15.548;2023-07-13T12:34:53;12.02;;;1.65;;
12135;SDS011;6131;56.420;15.548;2023-07-13T12:37:19;6.32;;;1.15;;
12135;SDS011;6131;56.420;15.548;2023-07-13T12:39:46;5.72;;;1.02;;
12135;SDS011;6131;56.420;15.548;2023-07-13T12:42:17;4.25;;;1.10;;
12135;SDS011;6131;56.420;15.548;2023-07-13T12:44:46;2.53;;;0.80;;
12135;SDS011;6131;56.420;15.548;2023-07-13T12:47:13;2.90;;;0.82;;
12135;SDS011;6131;56.420;15.548;2023-07-13T12:49:42;3.05;;;0.90;;
12135;SDS011;6131;56.420;15.548;2023-07-13T12:52:15;3.78;;;1.35;;
12135;SDS011;6131;56.420;15.548;2023-07-13T12:54:41;3.00;;;0.95;;
12135;SDS011;6131;56.420;15.548;2023-07-13T12:57:09;1.50;;;0.80;;
12135;SDS011;6131;56.420;15.548;2023-07-13T12:59:39;1.73;;;1.00;;
12135;SDS011;6131;56.420;15.548;2023-07-13T13:02:22;2.47;;;0.88;;
12135;SDS011;6131;56.420;15.548;2023-07-13T13:04:50;1.02;;;0.82;;
12135;SDS011;6131;56.420;15.548;2023-07-13T13:07:16;2.95;;;1.10;;
12135;SDS011;6131;56.420;15.548;2023-07-13T13:09:45;2.22;;;0.90;;
12135;SDS011;6131;56.420;15.548;2023-07-13T13:12:12;3.58;;;1.10;;
12135;SDS011;6131;56.420;15.548;2023-07-13T13:14:41;2.55;;;1.17;;
12135;SDS011;6131;56.420;15.548;2023-07-13T13:17:29;2.35;;;1.10;;
12135;SDS011;6131;56.420;15.548;2023-07-13T13:19:53;2.63;;;0.95;;
12135;SDS011;6131;56.420;15.548;2023-07-13T13:22:20;2.33;;;1.10;;
12135;SDS011;6131;56.420;15.548;2023-07-13T13:24:46;2.00;;;0.90;;
12135;SDS011;6131;56.420;15.548;2023-07-13T13:27:20;1.88;;;0.93;;
12135;SDS011;6131;56.420;15.548;2023-07-13T13:29:49;1.60;;;0.95;;
12135;SDS011;6131;56.420;15.548;2023-07-13T13:32:16;2.08;;;1.00;;
12135;SDS011;6131;56.420;15.548;2023-07-13T13:34:43;2.40;;;0.90;;
12135;SDS011;6131;56.420;15.548;2023-07-13T13:37:22;3.28;;;1.05;;
12135;SDS011;6131;56.420;15.548;2023-07-13T13:39:51;3.05;;;1.00;;
12135;SDS011;6131;56.420;15.548;2023-07-13T13:42:18;1.85;;;1.10;;
12135;SDS011;6131;56.420;15.548;2023-07-13T13:44:47;2.40;;;1.00;;
12135;SDS011;6131;56.420;15.548;2023-07-13T13:47:32;1.73;;;1.00;;
12135;SDS011;6131;56.420;15.548;2023-07-13T13:50:00;3.65;;;0.80;;
12135;SDS011;6131;56.420;15.548;2023-07-13T13:52:27;1.40;;;0.80;;
12135;SDS011;6131;56.420;15.548;2023-07-13T13:54:53;1.23;;;0.63;;
12135;SDS011;6131;56.420;15.548;2023-07-13T13:57:23;4.13;;;0.88;;
12135;SDS011;6131;56.420;15.548;2023-07-13T13:59:54;1.80;;;0.77;;
12135;SDS011;6131;56.420;15.548;2023-07-13T14:02:24;1.80;;;0.80;;
12135;SDS011;6131;56.420;15.548;2023-07-13T14:04:53;2.92;;;0.80;;
12135;SDS011;6131;56.420;15.548;2023-07-13T14:07:19;5.20;;;0.90;;
12135;SDS011;6131;56.420;15.548;2023-07-13T14:09:45;1.70;;;0.98;;
12135;SDS011;6131;56.420;15.548;2023-07-13T14:12:11;3.53;;;1.20;;
12135;SDS011;6131;56.420;15.548;2023-07-13T14:14:38;1.85;;;0.80;;
12135;SDS011;6131;56.420;15.548;2023-07-13T14:17:13;1.95;;;0.93;;
12135;SDS011;6131;56.420;15.548;2023-07-13T14:19:52;2.05;;;0.95;;
12135;SDS011;6131;56.420;15.548;2023-07-13T14:22:23;2.00;;;0.90;;
12135;SDS011;6131;56.420;15.548;2023-07-13T14:25:15;2.35;;;1.02;;
12135;SDS011;6131;56.420;15.548;2023-07-13T14:27:42;2.53;;;1.05;;
12135;SDS011;6131;56.420;15.548;2023-07-13T14:30:21;4.53;;;1.48;;
12135;SDS011;6131;56.420;15.548;2023-07-13T14:32:48;1.83;;;1.40;;
12135;SDS011;6131;56.420;15.548;2023-07-13T14:35:20;3.17;;;1.25;;
12135;SDS011;6131;56.420;15.548;2023-07-13T14:37:50;4.38;;;1.35;;
12135;SDS011;6131;56.420;15.548;2023-07-13T14:40:45;3.97;;;1.08;;
12135;SDS011;6131;56.420;15.548;2023-07-13T14:43:12;2.20;;;1.00;;
12135;SDS011;6131;56.420;15.548;2023-07-13T14:45:46;1.63;;;0.80;;
12135;SDS011;6131;56.420;15.548;2023-07-13T14:51:16;2.00;;;1.02;;
12135;SDS011;6131;56.420;15.548;2023-07-13T14:53:42;1.40;;;1.02;;
12135;SDS011;6131;56.420;15.548;2023-07-13T14:56:12;1.92;;;0.90;;
12135;SDS011;6131;56.420;15.548;2023-07-13T15:05:16;2.63;;;1.20;;
12135;SDS011;6131;56.420;15.548;2023-07-13T15:08:07;4.07;;;1.10;;
12135;SDS011;6131;56.420;15.548;2023-07-13T15:10:35;5.10;;;1.20;;
12135;SDS011;6131;56.420;15.548;2023-07-13T15:13:13;2.28;;;1.38;;
12135;SDS011;6131;56.420;15.548;2023-07-13T15:18:32;1.98;;;1.20;;
12135;SDS011;6131;56.420;15.548;2023-07-13T15:21:03;4.70;;;1.40;;
12135;SDS011;6131;56.420;15.548;2023-07-13T15:23:31;2.70;;;1.20;;
12135;SDS011;6131;56.420;15.548;2023-07-13T15:25:57;1.70;;;1.10;;
12135;SDS011;6131;56.420;15.548;2023-07-13T15:28:23;1.15;;;0.95;;
12135;SDS011;6131;56.420;15.548;2023-07-13T15:30:49;2.38;;;0.80;;
12135;SDS011;6131;56.420;15.548;2023-07-13T15:33:25;3.00;;;0.88;;
12135;SDS011;6131;56.420;15.548;2023-07-13T15:35:53;0.95;;;0.80;;
12135;SDS011;6131;56.420;15.548;2023-07-13T15:38:29;1.85;;;1.10;;
12135;SDS011;6131;56.420;15.548;2023-07-13T15:41:26;1.67;;;1.05;;
12135;SDS011;6131;56.420;15.548;2023-07-13T15:43:54;2.25;;;1.10;;
12135;SDS011;6131;56.420;15.548;2023-07-13T15:46:27;1.15;;;0.90;;
12135;SDS011;6131;56.420;15.548;2023-07-13T15:49:04;3.80;;;1.10;;
12135;SDS011;6131;56.420;15.548;2023-07-13T15:51:37;3.30;;;1.88;;
12135;SDS011;6131;56.420;15.548;2023-07-13T15:54:35;1.52;;;1.40;;
12135;SDS011;6131;56.420;15.548;2023-07-13T15:57:01;3.20;;;1.98;;
12135;SDS011;6131;56.420;15.548;2023-07-13T15:59:27;1.92;;;1.10;;
12135;SDS011;6131;56.420;15.548;2023-07-13T16:01:55;4.07;;;1.30;;
12135;SDS011;6131;56.420;15.548;2023-07-13T16:04:32;1.95;;;1.05;;
12135;SDS011;6131;56.420;15.548;2023-07-13T16:07:00;2.97;;;1.13;;
12135;SDS011;6131;56.420;15.548;2023-07-13T16:09:26;3.38;;;1.50;;